Cedarville, MI

1:24 AM EST on March 06, 2015 (GMT -0500)
No. 8 Island | Change Station
CLOSE
Current Station
Personal Weather Station
Location: Cedarville, MI
Elevation: 587 ft
Nearby Weather Stations

Elev 587 ft 45.98 °N, 84.31 °W | Updated 16 seconds ago

Partly Cloudy
Partly Cloudy
8.1 °F
Feels Like 8 °F
N
2.1
Wind Variable Wind from NNW
Gusts 6.5 mph

Today
High -- | Low -- °F
--% Chance of Precip.
Yesterday
High -- | Low -- °F
Precip. -- in
7:07 AM 6:30 PM
Full, 100% visible
Pressure 30.33 in
Visibility 10.0 miles
Clouds Clear
Windchill 8 °F
Dew Point 4 °F
Humidity 82%
Rainfall in
Snow Depth Not available.
UV 0 out of 12
Pollen .40 out of 12
Air Quality Not available.
Flu Activity Not available.
METAR KMCD 060616Z AUTO 20009KT 10SM CLR M15/M18 A3033 RMK AO2 T11491183

More Conditions Fewer Conditions

Pressure 30.33 in
Visibility 10.0 miles
Clouds Clear
Windchill 8 °F
Dew Point 4 °F
Humidity 82%
Rainfall in
Snow Depth Not available.
UV 0 out of 12
Pollen .40 out of 12
Air Quality Not available.
Flu Activity Not available.
METAR KMCD 060616Z AUTO 20009KT 10SM CLR M15/M18 A3033 RMK AO2 T11491183

More Conditions Fewer Conditions

Nowcast | as of 1:00 am EST on March 6, 2015

At 2 am...partly cloudy. Chance of snow showers. Temperature 2 below. Southwest winds 8 mph. At 4 am...mostly cloudy. Chance of snow showers. Temperature zero. Southwest winds 9 mph. At 6 am...mostly cloudy. Chance of snow showers. Temperature 3 above. Southwest winds 10 mph. Wind chill 12 below. At 8 am...partly cloudy. Chance of snow showers. Temperature 9 above. Southwest winds 13 mph with gusts to 25 mph. Wind chill 8 below.

×

10-Day Weather Forecast

Almanac

Astronomy

Mar. 06, 2015 Rise Set
Actual Time
Civil Twilight
Nautical Twilight
Astronomical Twilight
Moon
Length of Visible Light
Length of Day
Tomorrow will be .
, % of the Moon is Illuminated

Today's Extremes

State Highs State Lows

Community

WunderPhotos

Upload Photos

1,803,195 photos uploaded!

WunderBlogs® & News

Nearby

Air Quality

  Air Quality AQ Index Pollutant
Not available.

Snow Depth

Station Depth Elevation

Earthquake Activity

City Distance Mag. Time & Date
Minimum magnitude displayed is 2.5.

Coastal Water Temperatures

Place Temperature

Nearby Weather Stations